Time;durP1;ratioP1;P1;durP2;ratioP2;P2;SDS_P1;SDS_P2;PMS_P1;PMS_P2;Temp;Humidity;BMP_temperature;BMP_pressure;BME280_temperature;BME280_humidity;BME280_pressure;Samples;Min_cycle;Max_cycle;Signal;HPM_P1;HPM_P2
2023/08/07 00:01:21;;;;;;;1.52;1.20;;;21.00;52.10;;;;;;5018428;28;20341;-81
2023/08/07 00:03:48;;;;;;;2.83;1.50;;;21.10;52.20;;;;;;5018370;28;20269;-81
2023/08/07 00:06:15;;;;;;;1.17;1.08;;;21.00;52.00;;;;;;5018873;28;20250;-81
2023/08/07 00:08:43;;;;;;;1.30;1.10;;;21.00;51.90;;;;;;5022779;28;20251;-81
2023/08/07 00:11:10;;;;;;;1.98;1.30;;;21.00;52.60;;;;;;5007259;28;20226;-81
2023/08/07 00:13:37;;;;;;;1.42;1.25;;;21.00;52.00;;;;;;5018682;28;20196;-81
2023/08/07 00:16:06;;;;;;;2.63;1.17;;;21.00;51.90;;;;;;5019683;28;20330;-81
2023/08/07 00:18:33;;;;;;;1.63;1.10;;;21.00;51.90;;;;;;5018899;28;20203;-81
2023/08/07 00:23:41;;;;;;;1.20;1.10;;;21.00;51.90;;;;;;5015342;28;20351;-79
2023/08/07 00:26:08;;;;;;;1.17;1.00;;;21.00;51.90;;;;;;4998284;28;20613;-79
2023/08/07 00:28:35;;;;;;;1.17;1.08;;;21.00;51.90;;;;;;4998311;28;20652;-79
2023/08/07 00:31:02;;;;;;;1.33;1.20;;;21.00;51.90;;;;;;4998647;28;20220;-79
2023/08/07 00:33:31;;;;;;;1.55;1.02;;;21.00;51.90;;;;;;3945731;22;20231;-66
2023/08/07 00:35:58;;;;;;;1.88;1.17;;;20.90;51.80;;;;;;5033219;28;20238;-66
2023/08/07 00:38:25;;;;;;;2.30;1.35;;;20.90;51.80;;;;;;5034223;28;20188;-65
2023/08/07 00:40:54;;;;;;;1.20;1.10;;;20.90;51.80;;;;;;5032763;28;20203;-66
2023/08/07 00:43:21;;;;;;;2.35;1.30;;;20.90;51.70;;;;;;5034434;28;20596;-65
2023/08/07 00:45:49;;;;;;;0.90;0.90;;;20.90;51.70;;;;;;5016330;28;20682;-64
2023/08/07 00:48:16;;;;;;;1.30;1.20;;;20.90;51.70;;;;;;5034171;28;20192;-64
2023/08/07 00:50:45;;;;;;;2.00;1.17;;;20.90;51.60;;;;;;5016142;28;20239;-64
2023/08/07 00:53:13;;;;;;;1.20;1.10;;;20.90;51.70;;;;;;5016045;28;20674;-64
2023/08/07 00:55:41;;;;;;;1.35;1.20;;;20.90;51.70;;;;;;5033919;28;20184;-65
2023/08/07 00:58:08;;;;;;;1.38;1.25;;;20.80;51.50;;;;;;5016090;28;20195;-64
2023/08/07 01:00:36;;;;;;;1.25;1.00;;;20.90;51.50;;;;;;5016034;28;20551;-64
2023/08/07 01:03:06;;;;;;;1.70;1.30;;;20.90;51.60;;;;;;5015876;28;20252;-65
2023/08/07 01:05:33;;;;;;;2.15;1.30;;;20.90;51.50;;;;;;5016011;28;20192;-65
2023/08/07 01:08:02;;;;;;;1.45;1.10;;;20.80;51.50;;;;;;5015936;28;20203;-65
2023/08/07 01:10:35;;;;;;;2.78;1.40;;;20.80;51.50;;;;;;5033796;28;20188;-66
2023/08/07 01:13:06;;;;;;;1.58;1.25;;;20.80;51.50;;;;;;5015841;28;20226;-65
2023/08/07 01:15:33;;;;;;;1.60;1.10;;;20.80;51.40;;;;;;5015747;28;20188;-65
2023/08/07 01:18:00;;;;;;;1.63;1.05;;;20.80;51.50;;;;;;5033562;28;20196;-65
2023/08/07 01:20:28;;;;;;;1.73;1.20;;;20.80;51.30;;;;;;5015832;28;20204;-64
2023/08/07 01:22:56;;;;;;;2.20;1.20;;;20.80;51.90;;;;;;5015916;28;20230;-66
2023/08/07 01:25:23;;;;;;;1.20;1.10;;;20.80;51.40;;;;;;5016552;28;20551;-66
2023/08/07 01:27:56;;;;;;;1.30;1.20;;;20.80;51.30;;;;;;5033514;28;20195;-65
2023/08/07 01:30:27;;;;;;;1.42;1.20;;;20.80;51.40;;;;;;5015821;28;20200;-66
2023/08/07 01:33:00;;;;;;;1.83;1.20;;;20.80;51.30;;;;;;5015762;28;20716;-65
2023/08/07 01:35:29;;;;;;;1.35;1.23;;;20.80;51.20;;;;;;5015553;28;20231;-65
2023/08/07 01:37:58;;;;;;;1.40;1.30;;;20.70;51.20;;;;;;5014940;28;20674;-64
2023/08/07 01:40:26;;;;;;;1.55;1.45;;;20.80;51.30;;;;;;5059149;22;20234;-80
2023/08/07 01:42:54;;;;;;;1.48;1.27;;;20.70;51.20;;;;;;5015357;28;20193;-78
2023/08/07 01:45:28;;;;;;;2.40;1.30;;;20.80;51.20;;;;;;4999591;28;20196;-78
2023/08/07 01:47:55;;;;;;;1.63;1.35;;;20.70;51.20;;;;;;4997400;28;20192;-78
2023/08/07 01:50:23;;;;;;;2.78;1.50;;;20.70;51.10;;;;;;4997502;28;20213;-80
2023/08/07 01:52:50;;;;;;;1.42;1.33;;;20.70;51.20;;;;;;4993455;28;20223;-80
2023/08/07 01:55:19;;;;;;;1.65;1.30;;;20.70;51.20;;;;;;4998522;28;20607;-80
2023/08/07 01:57:53;;;;;;;2.97;1.50;;;20.70;51.20;;;;;;5014209;28;20200;-80
2023/08/07 02:00:21;;;;;;;3.08;1.33;;;20.70;51.10;;;;;;4984098;28;20223;-79
2023/08/07 02:02:47;;;;;;;2.15;1.30;;;20.70;51.00;;;;;;4985843;28;20299;-79
2023/08/07 02:05:14;;;;;;;1.58;1.30;;;20.70;50.90;;;;;;5002335;28;20204;-79
2023/08/07 02:07:41;;;;;;;1.63;1.30;;;20.70;51.00;;;;;;5017856;28;20295;-79
2023/08/07 02:10:09;;;;;;;1.90;1.50;;;20.70;51.00;;;;;;5001651;28;20199;-79
2023/08/07 02:12:38;;;;;;;1.52;1.27;;;20.70;51.10;;;;;;5001249;28;20263;-79
2023/08/07 02:15:06;;;;;;;1.20;1.10;;;20.60;51.10;;;;;;5016949;28;20272;-79
2023/08/07 02:17:33;;;;;;;1.35;1.20;;;20.60;51.10;;;;;;4998808;28;20224;-79
2023/08/07 02:20:00;;;;;;;1.83;1.17;;;20.60;50.90;;;;;;4997505;28;20208;-79
2023/08/07 02:22:27;;;;;;;1.30;1.20;;;20.60;50.70;;;;;;4996596;28;20219;-79
2023/08/07 02:24:55;;;;;;;1.35;1.20;;;20.60;50.70;;;;;;4997032;28;20670;-79
2023/08/07 02:27:21;;;;;;;1.45;1.27;;;20.60;50.70;;;;;;4996949;28;20262;-79
2023/08/07 02:29:50;;;;;;;1.50;1.35;;;20.60;50.70;;;;;;4997136;28;20727;-79
2023/08/07 02:32:18;;;;;;;2.10;1.30;;;20.60;50.70;;;;;;4997722;28;20227;-79
2023/08/07 02:34:45;;;;;;;2.25;1.30;;;20.60;50.70;;;;;;4997531;28;20197;-79
2023/08/07 02:37:13;;;;;;;2.70;1.30;;;20.60;50.70;;;;;;5003131;28;20193;-78
2023/08/07 02:39:39;;;;;;;1.58;1.40;;;20.60;50.70;;;;;;5013430;28;20652;-78
2023/08/07 02:42:07;;;;;;;1.60;1.20;;;20.60;50.60;;;;;;4996813;28;20270;-79
2023/08/07 02:44:35;;;;;;;2.47;1.30;;;20.60;50.60;;;;;;4980968;28;20201;-79
2023/08/07 02:47:04;;;;;;;2.35;1.55;;;20.60;50.50;;;;;;4998449;28;20723;-80
2023/08/07 02:49:31;;;;;;;1.52;1.30;;;20.60;50.40;;;;;;5001543;28;20676;-79
2023/08/07 02:51:59;;;;;;;2.03;1.20;;;20.60;50.40;;;;;;5003723;28;20307;-79
2023/08/07 02:54:26;;;;;;;2.13;1.30;;;20.60;50.30;;;;;;5003156;28;20196;-78
2023/08/07 02:56:53;;;;;;;3.38;1.30;;;20.60;50.40;;;;;;5020292;28;20193;-78
2023/08/07 02:59:20;;;;;;;1.52;1.42;;;20.60;50.20;;;;;;5002534;28;20201;-78
2023/08/07 03:01:47;;;;;;;2.60;1.40;;;20.60;50.20;;;;;;5003062;28;20220;-78
2023/08/07 03:04:15;;;;;;;1.50;1.38;;;20.60;50.00;;;;;;5002294;28;20226;-78
2023/08/07 03:06:42;;;;;;;2.83;1.40;;;20.60;50.10;;;;;;5019090;28;20192;-78
2023/08/07 03:09:09;;;;;;;1.75;1.58;;;20.60;49.70;;;;;;5001938;28;20204;-78
2023/08/07 03:11:36;;;;;;;1.60;1.27;;;20.60;49.70;;;;;;5002331;28;20224;-78
2023/08/07 03:14:03;;;;;;;1.90;1.55;;;20.60;49.50;;;;;;5002358;28;20247;-78
2023/08/07 03:16:30;;;;;;;2.47;1.50;;;20.60;49.20;;;;;;5002233;28;20628;-78
2023/08/07 03:18:58;;;;;;;1.88;1.38;;;20.60;49.10;;;;;;5005570;28;20645;-78
2023/08/07 03:21:27;;;;;;;1.52;1.40;;;20.60;48.70;;;;;;5016907;28;20284;-78
2023/08/07 03:23:54;;;;;;;1.92;1.30;;;20.60;48.80;;;;;;5033357;28;20279;-78
2023/08/07 03:26:21;;;;;;;2.22;1.50;;;20.70;48.90;;;;;;5016823;28;20205;-78
2023/08/07 03:28:50;;;;;;;1.40;1.30;;;20.70;48.60;;;;;;5017929;28;20659;-78
2023/08/07 03:31:16;;;;;;;2.03;1.27;;;20.70;48.30;;;;;;5017148;28;20284;-78
2023/08/07 03:33:43;;;;;;;2.72;1.60;;;20.80;48.30;;;;;;5017687;28;20197;-78
2023/08/07 03:36:12;;;;;;;2.45;1.55;;;20.80;47.90;;;;;;5017838;28;20201;-78
2023/08/07 03:38:41;;;;;;;1.75;1.48;;;20.80;48.20;;;;;;5000755;28;20200;-78
2023/08/07 03:41:08;;;;;;;1.50;1.08;;;20.90;48.40;;;;;;5006077;28;20707;-78
2023/08/07 03:43:37;;;;;;;1.70;1.30;;;21.00;48.20;;;;;;5004915;28;20220;-78
2023/08/07 03:46:04;;;;;;;1.42;1.33;;;21.00;48.00;;;;;;5004828;28;20284;-79
2023/08/07 03:48:32;;;;;;;2.15;1.77;;;21.00;47.80;;;;;;5004718;28;20208;-79
2023/08/07 03:51:04;;;;;;;2.92;1.73;;;21.00;47.60;;;;;;5014564;28;20221;-79
2023/08/07 03:53:32;;;;;;;2.60;1.63;;;20.90;47.80;;;;;;5015466;28;20200;-79
2023/08/07 03:56:01;;;;;;;1.83;1.27;;;20.90;48.00;;;;;;5014394;28;20200;-79
2023/08/07 03:58:29;;;;;;;1.77;1.30;;;21.00;47.90;;;;;;5011927;28;20260;-79
2023/08/07 04:00:56;;;;;;;2.42;1.48;;;21.00;47.90;;;;;;5012575;28;20220;-79
2023/08/07 04:03:23;;;;;;;3.53;1.73;;;20.90;48.00;;;;;;5020321;28;20224;-79
2023/08/07 04:05:52;;;;;;;2.75;1.48;;;20.90;47.70;;;;;;5002713;28;20382;-79
2023/08/07 04:08:19;;;;;;;2.47;1.38;;;20.90;47.70;;;;;;5003917;28;20204;-79
2023/08/07 04:10:46;;;;;;;2.22;1.45;;;20.90;47.80;;;;;;4987608;28;20223;-79
2023/08/07 04:13:15;;;;;;;2.15;1.50;;;20.90;47.80;;;;;;5003001;28;20203;-79
2023/08/07 04:15:42;;;;;;;2.33;1.42;;;20.90;47.80;;;;;;5002952;28;20203;-79
2023/08/07 04:18:09;;;;;;;1.33;1.23;;;20.90;47.70;;;;;;5003320;28;20264;-79
2023/08/07 04:20:36;;;;;;;3.05;1.60;;;20.80;47.50;;;;;;4987590;28;20702;-79
2023/08/07 04:23:03;;;;;;;2.55;1.60;;;20.80;47.80;;;;;;5003772;28;20236;-79
2023/08/07 04:25:30;;;;;;;2.60;1.60;;;20.80;47.80;;;;;;5004361;28;20196;-79
2023/08/07 04:27:57;;;;;;;2.05;1.50;;;20.80;47.70;;;;;;5000905;28;20204;-79
2023/08/07 04:30:26;;;;;;;1.88;1.60;;;20.80;47.80;;;;;;4999863;28;20327;-79
2023/08/07 04:32:53;;;;;;;2.72;2.00;;;20.80;47.80;;;;;;4983753;28;20197;-78
2023/08/07 04:35:20;;;;;;;3.40;1.98;;;20.80;48.10;;;;;;5001886;28;20203;-79
2023/08/07 04:37:47;;;;;;;2.90;1.73;;;20.80;48.40;;;;;;4986994;28;20261;-80
2023/08/07 04:40:14;;;;;;;1.65;1.40;;;20.80;48.60;;;;;;5003364;28;20221;-81
2023/08/07 04:42:41;;;;;;;2.47;1.63;;;20.80;48.70;;;;;;4982786;28;20204;-81
2023/08/07 04:45:09;;;;;;;1.40;1.30;;;20.80;48.70;;;;;;5002609;28;20197;-81
2023/08/07 04:47:38;;;;;;;3.03;1.60;;;20.70;48.80;;;;;;5002429;28;20200;-80
2023/08/07 04:50:06;;;;;;;1.65;1.30;;;20.70;48.80;;;;;;5002907;28;20208;-80
2023/08/07 04:52:33;;;;;;;2.92;1.65;;;20.80;49.00;;;;;;5001930;28;20223;-80
2023/08/07 04:55:00;;;;;;;1.80;1.40;;;20.70;49.40;;;;;;5001986;28;20199;-80
2023/08/07 04:57:27;;;;;;;2.42;1.63;;;20.70;49.10;;;;;;5018412;28;20262;-80
2023/08/07 04:59:54;;;;;;;1.92;1.50;;;20.70;49.10;;;;;;5002046;28;20205;-80
2023/08/07 05:02:21;;;;;;;3.03;1.60;;;20.70;49.00;;;;;;5001831;28;20216;-80
2023/08/07 05:04:50;;;;;;;2.90;1.50;;;20.70;49.20;;;;;;5000982;28;20315;-79
2023/08/07 05:07:17;;;;;;;1.92;1.27;;;20.70;49.10;;;;;;5001291;28;20185;-79
2023/08/07 05:09:44;;;;;;;1.80;1.38;;;20.70;49.30;;;;;;5000417;28;20439;-79
2023/08/07 05:12:11;;;;;;;2.15;1.30;;;20.80;49.20;;;;;;5000640;28;20271;-80
2023/08/07 05:14:38;;;;;;;2.88;1.50;;;20.70;49.30;;;;;;5018273;28;20185;-81
2023/08/07 05:17:05;;;;;;;2.45;1.20;;;20.70;49.30;;;;;;4999436;28;20188;-80
2023/08/07 05:19:32;;;;;;;4.30;1.50;;;20.70;49.20;;;;;;5015355;28;20212;-80
2023/08/07 05:22:00;;;;;;;2.15;1.30;;;20.70;49.10;;;;;;4982192;28;20225;-80
2023/08/07 05:24:27;;;;;;;2.00;1.73;;;20.70;49.10;;;;;;4997863;28;20679;-81
2023/08/07 05:26:55;;;;;;;2.33;1.40;;;20.70;49.00;;;;;;4997756;28;20208;-81
2023/08/07 05:29:21;;;;;;;3.78;1.55;;;20.70;49.00;;;;;;4998031;28;20216;-81
2023/08/07 05:31:48;;;;;;;4.25;1.73;;;20.70;49.10;;;;;;4997677;28;20227;-81
2023/08/07 05:34:15;;;;;;;3.45;1.38;;;20.70;48.90;;;;;;4997840;28;20674;-81
2023/08/07 05:36:42;;;;;;;1.90;1.40;;;20.70;48.90;;;;;;4981701;28;20730;-81
2023/08/07 05:39:11;;;;;;;2.75;1.30;;;20.70;48.90;;;;;;4997944;28;20202;-78
2023/08/07 05:41:39;;;;;;;1.80;1.40;;;20.70;48.90;;;;;;4997451;28;20323;-80
2023/08/07 05:44:06;;;;;;;3.38;1.40;;;20.70;48.90;;;;;;4997036;28;20296;-77
2023/08/07 05:46:33;;;;;;;1.52;1.33;;;20.70;49.00;;;;;;4994451;28;20200;-78
2023/08/07 05:49:00;;;;;;;1.52;1.23;;;20.70;48.70;;;;;;4994713;28;20204;-78
2023/08/07 05:51:27;;;;;;;1.50;1.23;;;20.70;48.90;;;;;;4994281;28;20572;-78
2023/08/07 05:53:53;;;;;;;2.08;1.60;;;20.70;48.80;;;;;;5012868;28;20204;-78
2023/08/07 05:56:22;;;;;;;2.58;1.50;;;20.80;48.60;;;;;;4997591;28;20232;-78
2023/08/07 05:58:49;;;;;;;1.73;1.42;;;20.80;48.60;;;;;;4996736;28;20214;-78
2023/08/07 06:01:17;;;;;;;4.88;1.70;;;20.90;48.60;;;;;;5013279;28;20224;-78
2023/08/07 06:03:44;;;;;;;1.92;1.48;;;20.90;48.70;;;;;;4997648;28;20267;-78
2023/08/07 06:06:11;;;;;;;4.22;1.50;;;20.90;48.40;;;;;;4980382;28;20209;-78
2023/08/07 06:08:39;;;;;;;2.20;1.40;;;21.00;48.40;;;;;;4996274;28;20232;-78
2023/08/07 06:11:08;;;;;;;2.42;1.42;;;21.00;48.40;;;;;;4996226;28;20221;-78
2023/08/07 06:13:36;;;;;;;1.83;1.40;;;21.10;48.60;;;;;;4998597;28;20189;-78
2023/08/07 06:16:09;;;;;;;2.55;1.50;;;21.10;48.40;;;;;;4998002;28;20292;-77
2023/08/07 06:18:37;;;;;;;1.85;1.40;;;21.20;48.30;;;;;;4997662;28;20189;-77
2023/08/07 06:24:02;;;;;;;1.58;1.25;;;21.30;48.20;;;;;;4996350;28;20639;-79
2023/08/07 06:26:29;;;;;;;1.50;1.40;;;21.30;48.10;;;;;;4998657;28;20300;-79
2023/08/07 06:28:59;;;;;;;2.22;1.40;;;21.40;47.90;;;;;;4999225;28;20664;-79
2023/08/07 06:31:26;;;;;;;2.40;1.58;;;21.50;48.00;;;;;;4970500;28;20218;-79
2023/08/07 06:33:52;;;;;;;2.97;1.50;;;21.50;48.00;;;;;;4980070;28;20213;-79
2023/08/07 06:36:19;;;;;;;2.13;1.50;;;21.50;48.00;;;;;;4980459;28;20652;-79
2023/08/07 06:38:47;;;;;;;2.03;1.55;;;21.50;47.90;;;;;;4979227;28;20620;-79
2023/08/07 06:41:14;;;;;;;1.95;1.50;;;21.50;47.90;;;;;;4979316;28;20232;-79
2023/08/07 06:43:41;;;;;;;1.40;1.10;;;21.60;47.90;;;;;;4978792;28;20693;-79
2023/08/07 06:46:11;;;;;;;2.72;1.67;;;21.60;48.00;;;;;;4978877;28;20202;-79
2023/08/07 06:48:38;;;;;;;1.77;1.35;;;21.60;47.90;;;;;;4979143;28;20206;-79
2023/08/07 06:51:05;;;;;;;2.17;1.48;;;21.60;47.90;;;;;;4978262;28;20237;-79
2023/08/07 06:53:32;;;;;;;1.52;1.23;;;21.60;48.00;;;;;;4977698;28;20645;-78
2023/08/07 06:55:58;;;;;;;2.78;1.60;;;21.60;47.80;;;;;;4977819;28;20218;-78
2023/08/07 06:58:25;;;;;;;1.85;1.60;;;21.60;47.80;;;;;;4961743;28;20202;-78
2023/08/07 07:00:53;;;;;;;2.17;1.42;;;21.60;48.40;;;;;;4961676;28;20222;-79
2023/08/07 07:03:22;;;;;;;1.60;1.50;;;21.60;47.70;;;;;;4979681;28;20604;-80
2023/08/07 07:05:50;;;;;;;1.63;1.52;;;21.70;47.70;;;;;;4977205;28;20209;-80
2023/08/07 07:08:17;;;;;;;1.55;1.45;;;21.70;47.70;;;;;;4961202;28;20208;-80
2023/08/07 07:10:44;;;;;;;2.55;1.50;;;21.80;47.70;;;;;;4976914;28;20226;-80
2023/08/07 07:13:12;;;;;;;1.67;1.30;;;21.80;47.70;;;;;;4946880;28;20208;-80
2023/08/07 07:15:39;;;;;;;1.50;1.30;;;21.90;47.50;;;;;;4980746;28;20654;-80
2023/08/07 07:18:06;;;;;;;1.77;1.40;;;22.00;47.50;;;;;;4980783;28;20198;-80
2023/08/07 07:20:34;;;;;;;2.72;1.50;;;22.20;47.50;;;;;;4964360;28;20220;-80
2023/08/07 07:23:01;;;;;;;3.05;1.60;;;22.30;46.90;;;;;;4980098;28;20202;-80
2023/08/07 07:25:28;;;;;;;2.05;1.60;;;22.50;46.80;;;;;;4979650;28;20217;-80
2023/08/07 07:27:55;;;;;;;1.90;1.33;;;22.50;46.50;;;;;;4979296;28;20194;-80
2023/08/07 07:30:22;;;;;;;1.67;1.30;;;22.60;46.30;;;;;;4963877;28;20643;-80
2023/08/07 07:32:51;;;;;;;1.85;1.30;;;22.50;46.20;;;;;;4977367;28;20202;-80
2023/08/07 07:35:18;;;;;;;1.85;1.48;;;22.60;46.10;;;;;;4976178;28;20281;-80
2023/08/07 07:37:46;;;;;;;2.28;1.40;;;22.60;46.10;;;;;;4961101;28;20197;-79
2023/08/07 07:40:14;;;;;;;1.38;1.20;;;22.50;46.20;;;;;;4977281;28;20256;-79
2023/08/07 07:42:41;;;;;;;1.30;1.20;;;22.50;46.10;;;;;;4977434;28;20216;-79
2023/08/07 07:45:09;;;;;;;2.70;1.60;;;22.50;46.10;;;;;;4976991;28;20296;-79
2023/08/07 07:47:36;;;;;;;1.45;1.35;;;22.50;46.20;;;;;;4960662;28;20289;-79
2023/08/07 07:50:07;;;;;;;1.65;1.50;;;22.40;46.20;;;;;;4976977;28;20202;-79
2023/08/07 07:52:34;;;;;;;2.08;1.40;;;22.40;46.10;;;;;;4976764;28;20253;-79
2023/08/07 07:55:03;;;;;;;1.42;1.17;;;22.50;46.30;;;;;;4976790;28;20202;-79
2023/08/07 07:57:30;;;;;;;1.60;1.50;;;22.50;46.30;;;;;;4977039;28;20199;-78
2023/08/07 07:59:57;;;;;;;1.58;1.45;;;22.60;46.40;;;;;;4976550;28;20233;-78
2023/08/07 08:02:24;;;;;;;1.77;1.40;;;22.70;46.20;;;;;;4976966;28;20206;-78
2023/08/07 08:04:52;;;;;;;1.48;1.25;;;22.70;46.20;;;;;;4976618;28;20304;-78
2023/08/07 08:07:19;;;;;;;2.58;1.33;;;22.70;45.90;;;;;;4976706;28;20198;-78
2023/08/07 08:09:47;;;;;;;1.30;1.20;;;22.70;45.70;;;;;;4976993;28;20570;-79
2023/08/07 08:12:15;;;;;;;1.85;1.30;;;22.70;45.70;;;;;;4977643;28;20226;-79
2023/08/07 08:14:43;;;;;;;1.98;1.30;;;22.70;45.60;;;;;;4976802;28;20208;-78
2023/08/07 08:17:09;;;;;;;1.85;1.50;;;22.70;45.50;;;;;;4976993;28;20225;-78
2023/08/07 08:19:37;;;;;;;1.75;1.35;;;22.70;45.50;;;;;;4976850;28;20617;-79
2023/08/07 08:22:04;;;;;;;1.63;1.20;;;22.70;45.40;;;;;;4960462;28;20230;-78
2023/08/07 08:24:32;;;;;;;3.13;1.58;;;22.60;45.40;;;;;;4975906;28;20673;-78
2023/08/07 08:27:00;;;;;;;1.77;1.30;;;22.60;45.40;;;;;;4976320;28;20198;-79
2023/08/07 08:29:28;;;;;;;2.08;1.30;;;22.60;45.60;;;;;;4976297;28;20297;-79
2023/08/07 08:31:56;;;;;;;1.30;1.20;;;22.60;45.60;;;;;;4977177;28;20222;-79
2023/08/07 08:34:23;;;;;;;2.05;1.55;;;22.60;45.60;;;;;;4976631;28;20226;-79
2023/08/07 08:36:50;;;;;;;1.48;1.20;;;22.60;45.80;;;;;;4977166;28;20198;-79
2023/08/07 08:39:17;;;;;;;1.85;1.35;;;22.60;45.80;;;;;;4976779;28;20194;-79
2023/08/07 08:41:46;;;;;;;1.00;1.00;;;22.60;45.50;;;;;;4975933;28;20628;-80
2023/08/07 08:44:13;;;;;;;2.38;1.35;;;22.60;45.30;;;;;;4975325;28;20612;-79
2023/08/07 08:46:42;;;;;;;2.15;1.30;;;22.70;45.10;;;;;;4975638;28;20206;-80
2023/08/07 08:49:09;;;;;;;2.03;1.10;;;22.70;44.90;;;;;;4976053;28;20206;-80
2023/08/07 08:51:36;;;;;;;1.80;1.33;;;22.80;44.80;;;;;;4975617;28;20222;-80
2023/08/07 08:54:03;;;;;;;1.42;1.33;;;22.80;44.50;;;;;;4975654;28;20194;-79
2023/08/07 08:56:30;;;;;;;1.52;1.42;;;22.80;44.60;;;;;;4976730;28;20229;-80
2023/08/07 08:58:57;;;;;;;1.48;1.20;;;22.90;44.60;;;;;;4976389;28;20201;-80
2023/08/07 09:01:25;;;;;;;1.80;1.33;;;22.90;44.60;;;;;;4975642;28;20222;-80
2023/08/07 09:03:54;;;;;;;1.30;1.20;;;23.00;44.50;;;;;;4976283;28;20614;-79
2023/08/07 09:06:21;;;;;;;1.45;1.20;;;23.10;44.40;;;;;;4976499;28;20310;-80
2023/08/07 09:08:49;;;;;;;1.50;1.40;;;23.10;44.20;;;;;;4976293;28;20268;-80
2023/08/07 09:11:16;;;;;;;1.13;1.00;;;23.10;44.10;;;;;;4976317;28;20260;-80
2023/08/07 09:13:43;;;;;;;1.25;1.10;;;23.20;44.10;;;;;;4976375;28;20203;-79
2023/08/07 09:16:10;;;;;;;1.30;1.20;;;23.30;43.90;;;;;;4976173;28;20563;-79
2023/08/07 09:18:38;;;;;;;1.40;1.30;;;23.30;43.90;;;;;;4960225;28;20194;-80
2023/08/07 09:21:06;;;;;;;1.23;0.93;;;23.40;44.00;;;;;;4975834;28;20284;-80
2023/08/07 09:23:33;;;;;;;1.23;1.10;;;23.40;43.70;;;;;;4976071;28;20711;-80
2023/08/07 09:26:00;;;;;;;3.22;1.10;;;23.50;43.70;;;;;;4959896;28;20225;-79
2023/08/07 09:28:29;;;;;;;2.03;1.10;;;23.50;43.50;;;;;;4976242;28;20197;-80
2023/08/07 09:30:56;;;;;;;2.28;1.30;;;23.50;43.50;;;;;;4976470;28;20229;-80
2023/08/07 09:33:27;;;;;;;1.58;1.30;;;23.50;43.40;;;;;;4975693;28;20202;-78
2023/08/07 09:35:54;;;;;;;1.42;1.27;;;23.50;43.40;;;;;;4976637;28;20195;-78
2023/08/07 09:38:25;;;;;;;1.48;1.38;;;23.50;43.40;;;;;;4975452;28;20289;-79
2023/08/07 09:40:52;;;;;;;2.15;1.20;;;23.50;43.40;;;;;;4976860;28;20313;-79
2023/08/07 09:43:23;;;;;;;1.38;1.27;;;23.50;43.40;;;;;;4975561;28;20572;-79
2023/08/07 09:45:51;;;;;;;2.00;1.17;;;23.50;43.40;;;;;;4976049;28;20218;-79
2023/08/07 09:48:23;;;;;;;1.80;1.20;;;23.50;43.40;;;;;;4976139;28;20202;-80
2023/08/07 09:50:50;;;;;;;1.20;1.10;;;23.50;43.40;;;;;;4975897;28;20221;-80
2023/08/07 09:53:17;;;;;;;1.30;1.20;;;23.50;43.30;;;;;;4962490;28;20716;-78
2023/08/07 09:55:46;;;;;;;1.23;1.13;;;23.60;43.50;;;;;;4975847;28;20677;-79
2023/08/07 09:58:13;;;;;;;1.40;1.30;;;23.50;43.30;;;;;;4958820;28;20198;-80
2023/08/07 10:00:41;;;;;;;1.23;1.13;;;23.60;43.40;;;;;;4974789;28;20222;-80
2023/08/07 10:03:08;;;;;;;1.15;1.05;;;23.60;43.20;;;;;;4975291;28;20221;-80
2023/08/07 10:05:35;;;;;;;1.30;1.20;;;23.60;43.20;;;;;;4974188;28;20218;-80
2023/08/07 10:08:02;;;;;;;0.98;0.90;;;23.60;43.10;;;;;;4974360;28;20202;-80
2023/08/07 10:10:29;;;;;;;1.42;1.20;;;23.60;43.00;;;;;;4974153;28;20239;-80
2023/08/07 10:12:57;;;;;;;1.20;1.10;;;23.70;43.00;;;;;;4974433;28;20264;-80
2023/08/07 10:15:25;;;;;;;1.52;1.23;;;23.70;43.10;;;;;;4974388;28;20198;-78
2023/08/07 10:17:51;;;;;;;1.35;1.25;;;23.80;43.00;;;;;;4958406;28;20198;-78
2023/08/07 10:20:20;;;;;;;1.88;1.35;;;23.80;42.90;;;;;;4974358;28;20276;-78
2023/08/07 10:22:47;;;;;;;1.50;1.40;;;23.80;43.00;;;;;;4974529;28;20688;-78
2023/08/07 10:25:14;;;;;;;1.23;1.13;;;23.80;42.80;;;;;;4974344;28;20213;-78
2023/08/07 10:27:42;;;;;;;1.40;1.30;;;23.80;42.80;;;;;;4958859;28;20209;-78
2023/08/07 10:30:13;;;;;;;1.10;0.93;;;23.80;42.90;;;;;;4976109;28;20197;-78
2023/08/07 10:32:40;;;;;;;2.00;1.02;;;23.90;42.90;;;;;;4974064;28;20198;-78
2023/08/07 10:35:07;;;;;;;1.27;1.10;;;23.80;42.80;;;;;;4974197;28;20209;-78
2023/08/07 10:37:39;;;;;;;1.35;1.20;;;23.80;42.70;;;;;;4973811;28;20206;-78
2023/08/07 10:40:09;;;;;;;1.67;1.20;;;23.80;42.70;;;;;;4959439;28;20644;-78
2023/08/07 10:42:52;;;;;;;1.73;1.20;;;23.80;42.70;;;;;;4959113;28;20257;-78
2023/08/07 10:45:22;;;;;;;1.38;1.27;;;23.80;42.70;;;;;;4975436;28;20590;-78
2023/08/07 10:47:58;;;;;;;1.25;1.15;;;23.80;42.80;;;;;;4974925;28;20202;-78
2023/08/07 10:50:30;;;;;;;1.30;1.15;;;23.80;42.80;;;;;;4975260;28;20301;-78
2023/08/07 10:52:57;;;;;;;1.55;1.30;;;23.80;42.80;;;;;;4975759;28;20640;-78
2023/08/07 10:55:25;;;;;;;1.42;1.10;;;23.80;42.80;;;;;;4974190;28;20195;-78
2023/08/07 10:57:51;;;;;;;1.08;0.98;;;23.70;42.70;;;;;;4974719;28;20229;-79
2023/08/07 11:00:22;;;;;;;2.55;1.30;;;23.70;42.80;;;;;;4974482;28;20765;-79
2023/08/07 11:02:50;;;;;;;1.30;1.20;;;23.70;42.90;;;;;;4974635;28;20252;-79
2023/08/07 11:05:18;;;;;;;2.30;1.55;;;23.60;42.80;;;;;;4974382;28;20250;-79
2023/08/07 11:07:46;;;;;;;1.30;1.17;;;23.60;42.90;;;;;;4974511;28;20206;-80
2023/08/07 11:10:14;;;;;;;1.70;1.38;;;23.60;43.00;;;;;;4975358;28;20273;-80
2023/08/07 11:12:41;;;;;;;1.25;1.15;;;23.60;43.00;;;;;;4978102;28;20229;-80
2023/08/07 11:15:09;;;;;;;1.55;1.15;;;23.70;43.00;;;;;;4979313;28;20562;-80
2023/08/07 11:17:37;;;;;;;1.38;1.27;;;23.70;43.00;;;;;;4977926;28;20326;-80
2023/08/07 11:20:05;;;;;;;1.27;1.20;;;23.70;43.00;;;;;;4977584;28;20212;-80
2023/08/07 11:22:32;;;;;;;1.63;1.30;;;23.70;43.00;;;;;;4961612;28;20346;-80
2023/08/07 11:24:59;;;;;;;1.65;1.20;;;23.70;42.90;;;;;;4977460;28;20225;-80
2023/08/07 11:27:26;;;;;;;1.98;1.50;;;23.70;42.90;;;;;;4977847;28;20194;-79
2023/08/07 11:29:53;;;;;;;1.60;1.50;;;23.70;42.90;;;;;;4961489;28;20565;-79
2023/08/07 11:32:22;;;;;;;1.40;1.30;;;23.70;42.90;;;;;;4977549;28;20292;-79
2023/08/07 11:34:51;;;;;;;1.55;1.40;;;23.70;42.90;;;;;;4977704;28;20649;-79
2023/08/07 11:37:18;;;;;;;1.35;1.25;;;23.70;42.90;;;;;;4977409;28;20210;-79
2023/08/07 11:39:45;;;;;;;1.35;1.25;;;23.60;43.40;;;;;;4961042;28;20198;-79
2023/08/07 11:42:12;;;;;;;1.33;1.23;;;23.70;42.90;;;;;;4977833;28;20222;-79
2023/08/07 11:44:39;;;;;;;1.67;1.40;;;23.60;42.90;;;;;;4977381;28;20568;-80
2023/08/07 11:47:07;;;;;;;1.98;1.10;;;23.60;42.90;;;;;;4978193;28;20214;-80
2023/08/07 11:49:34;;;;;;;1.40;1.27;;;23.60;43.00;;;;;;4976714;28;20546;-80
2023/08/07 11:52:03;;;;;;;1.20;1.10;;;23.60;43.00;;;;;;4976782;28;20218;-80
2023/08/07 11:54:30;;;;;;;1.40;1.30;;;23.60;43.10;;;;;;4976690;28;20286;-80
2023/08/07 11:56:57;;;;;;;1.30;1.20;;;23.50;43.00;;;;;;4976817;28;20205;-80
2023/08/07 11:59:24;;;;;;;1.40;1.30;;;23.60;43.10;;;;;;4976375;28;20205;-80
2023/08/07 12:01:51;;;;;;;1.90;1.30;;;23.50;43.10;;;;;;4982805;28;20248;-79
2023/08/07 12:04:19;;;;;;;1.52;1.42;;;23.50;43.20;;;;;;4972032;28;20198;-79
2023/08/07 12:06:54;;;;;;;1.40;1.30;;;23.50;43.20;;;;;;4971235;28;20229;-79
2023/08/07 12:09:22;;;;;;;1.30;1.20;;;23.50;43.40;;;;;;4985158;28;20637;-79
2023/08/07 12:11:49;;;;;;;1.48;1.15;;;23.50;43.20;;;;;;4982959;28;20256;-79
2023/08/07 12:14:17;;;;;;;1.55;1.45;;;23.50;43.40;;;;;;4982036;28;20198;-79
2023/08/07 12:16:45;;;;;;;1.10;1.10;;;23.40;43.20;;;;;;4966027;28;20194;-79
2023/08/07 12:19:12;;;;;;;2.53;1.30;;;23.40;43.40;;;;;;4980393;28;20264;-79
2023/08/07 12:21:40;;;;;;;1.95;1.45;;;23.40;43.50;;;;;;5043790;22;20233;-79
2023/08/07 12:24:08;;;;;;;1.45;1.35;;;23.40;43.40;;;;;;4998189;28;20287;-78
2023/08/07 12:26:36;;;;;;;1.92;1.60;;;23.40;43.40;;;;;;4997900;28;20239;-78
2023/08/07 12:29:03;;;;;;;1.70;1.58;;;23.40;43.50;;;;;;4998025;28;20282;-78
2023/08/07 12:31:30;;;;;;;1.42;1.33;;;23.40;43.70;;;;;;4997852;28;20228;-78
2023/08/07 12:33:57;;;;;;;1.60;1.50;;;23.40;43.80;;;;;;4998246;28;20204;-78
2023/08/07 12:36:24;;;;;;;1.35;1.25;;;23.40;44.00;;;;;;4997943;28;20204;-78
2023/08/07 12:38:51;;;;;;;1.33;1.23;;;23.40;43.80;;;;;;4997798;28;20188;-78
2023/08/07 12:41:18;;;;;;;1.90;1.60;;;23.40;43.80;;;;;;4997529;28;20232;-78
2023/08/07 12:43:46;;;;;;;2.22;1.60;;;23.40;43.80;;;;;;4998624;28;20662;-78
2023/08/07 12:46:13;;;;;;;1.40;1.30;;;23.40;43.80;;;;;;5015440;28;20231;-78
2023/08/07 12:48:40;;;;;;;1.60;1.50;;;23.40;43.90;;;;;;4998445;28;20192;-78
2023/08/07 12:51:07;;;;;;;2.47;1.60;;;23.40;44.00;;;;;;4998636;28;20221;-78
2023/08/07 12:53:34;;;;;;;1.60;1.50;;;23.40;43.90;;;;;;5015359;28;20295;-78
2023/08/07 12:56:02;;;;;;;1.50;1.40;;;23.40;44.00;;;;;;5015359;28;20192;-78